Time;durP1;ratioP1;P1;durP2;ratioP2;P2;SDS_P1;SDS_P2;PMS_P1;PMS_P2;Temp;Humidity;BMP_temperature;BMP_pressure;BME280_temperature;BME280_humidity;BME280_pressure;Samples;Min_cycle;Max_cycle;Signal;HPM_P1;HPM_P2
2023/09/23 00:02:25;;;;;;;0.10;0.10;;;;;;;10.46;100.00;95846.91;4932466;28;20448;-85
2023/09/23 00:05:15;;;;;;;0.10;0.10;;;;;;;10.51;100.00;95854.97;4937590;28;20051;-87
2023/09/23 00:08:00;;;;;;;0.00;0.00;;;;;;;10.41;100.00;95849.56;4934709;28;20046;-86
2023/09/23 00:10:50;;;;;;;0.10;0.10;;;;;;;10.29;100.00;95852.47;4934776;28;20066;-86
2023/09/23 00:13:36;;;;;;;0.10;0.10;;;;;;;10.27;100.00;95851.91;4934596;28;20576;-87
2023/09/23 00:16:22;;;;;;;0.10;0.10;;;;;;;10.07;100.00;95847.25;4934446;28;20047;-85
2023/09/23 00:19:09;;;;;;;0.03;0.03;;;;;;;10.03;100.00;95854.97;4932343;28;20121;-85
2023/09/23 00:21:54;;;;;;;0.10;0.10;;;;;;;10.16;100.00;95853.69;4933892;28;20491;-86
2023/09/23 00:24:40;;;;;;;0.00;0.00;;;;;;;10.14;100.00;95853.16;4920918;28;20134;-85
2023/09/23 00:27:27;;;;;;;0.10;0.10;;;;;;;10.21;100.00;95848.38;4934690;28;20055;-87
2023/09/23 00:30:13;;;;;;;0.10;0.10;;;;;;;10.28;100.00;95865.03;4934500;28;20577;-86
2023/09/23 00:32:59;;;;;;;0.10;0.10;;;;;;;10.21;100.00;95858.28;4934366;28;20761;-86
2023/09/23 00:35:45;;;;;;;0.08;0.08;;;;;;;10.28;100.00;95862.34;4921941;28;20035;-86
2023/09/23 00:38:32;;;;;;;0.10;0.10;;;;;;;10.19;100.00;95863.84;4922201;28;20043;-84
2023/09/23 00:41:17;;;;;;;0.10;0.10;;;;;;;10.11;100.00;95858.22;4921520;28;20230;-88
2023/09/23 00:44:04;;;;;;;0.10;0.10;;;;;;;9.81;100.00;95878.38;4935419;28;20055;-86
2023/09/23 00:46:50;;;;;;;0.10;0.10;;;;;;;9.87;100.00;95873.84;4934791;28;20047;-85
2023/09/23 00:49:37;;;;;;;0.10;0.10;;;;;;;9.74;100.00;95875.91;4936974;28;20168;-85
2023/09/23 00:52:23;;;;;;;0.10;0.10;;;;;;;9.80;100.00;95882.06;4936961;28;20043;-84
2023/09/23 00:55:10;;;;;;;0.10;0.10;;;;;;;9.66;100.00;95883.59;4935712;28;20110;-83
2023/09/23 00:58:00;;;;;;;0.10;0.10;;;;;;;9.57;100.00;95885.94;4938463;28;20082;-84
2023/09/23 01:00:51;;;;;;;0.10;0.10;;;;;;;9.69;100.00;95888.44;4922991;29;20039;-85
2023/09/23 01:03:38;;;;;;;0.10;0.10;;;;;;;9.88;100.00;95886.94;4934391;28;20552;-85
2023/09/23 01:06:27;;;;;;;0.10;0.10;;;;;;;9.92;100.00;95892.59;4933780;28;20558;-85
2023/09/23 01:09:20;;;;;;;0.10;0.10;;;;;;;9.99;100.00;95890.50;4935313;28;20089;-84
2023/09/23 01:12:08;;;;;;;0.10;0.10;;;;;;;9.90;100.00;95895.53;4937064;28;20050;-84
2023/09/23 01:14:59;;;;;;;0.10;0.10;;;;;;;9.81;100.00;95897.06;4937084;28;20044;-84
2023/09/23 01:17:47;;;;;;;0.10;0.10;;;;;;;9.99;100.00;95898.53;4936649;28;20513;-84
2023/09/23 01:20:33;;;;;;;0.10;0.10;;;;;;;9.71;100.00;95900.47;4938432;28;20282;-86
2023/09/23 01:23:21;;;;;;;0.10;0.10;;;;;;;9.54;100.00;95902.47;4935125;28;20760;-85
2023/09/23 01:26:10;;;;;;;0.10;0.10;;;;;;;9.44;100.00;95911.22;4938179;28;20054;-85
2023/09/23 01:28:58;;;;;;;0.00;0.00;;;;;;;9.33;100.00;95917.50;4924048;28;20043;-85
2023/09/23 01:32:04;;;;;;;0.10;0.10;;;;;;;9.33;100.00;95914.03;4936452;28;20426;-84
2023/09/23 01:34:49;;;;;;;0.10;0.10;;;;;;;9.34;100.00;95911.13;4937182;28;20043;-85
2023/09/23 01:37:35;;;;;;;0.10;0.10;;;;;;;9.33;100.00;95925.50;4937048;28;20043;-86
2023/09/23 01:40:24;;;;;;;0.10;0.10;;;;;;;9.19;100.00;95929.69;4922843;28;20058;-84
2023/09/23 01:43:09;;;;;;;0.00;0.00;;;;;;;9.04;100.00;95919.66;4936375;28;20042;-84
2023/09/23 01:46:02;;;;;;;0.10;0.10;;;;;;;8.98;100.00;95925.97;4936925;28;20243;-84
2023/09/23 01:48:48;;;;;;;0.10;0.10;;;;;;;8.80;100.00;95919.13;4921125;28;20042;-85
2023/09/23 01:51:37;;;;;;;0.10;0.10;;;;;;;8.64;100.00;95928.81;4921109;28;20561;-85
2023/09/23 01:54:23;;;;;;;0.10;0.10;;;;;;;8.50;100.00;95946.22;4936029;28;20118;-85
2023/09/23 01:57:16;;;;;;;0.10;0.10;;;;;;;8.40;100.00;95943.41;4920332;29;20067;-84
2023/09/23 02:00:17;;;;;;;0.10;0.10;;;;;;;8.33;100.00;95929.47;4935752;28;20700;-85
2023/09/23 02:03:03;;;;;;;;;;;;;;;8.28;100.00;95945.38;4921183;28;20054;-85
2023/09/23 02:05:49;;;;;;;0.10;0.10;;;;;;;8.21;100.00;95945.53;4937800;28;20382;-86
2023/09/23 02:08:35;;;;;;;0.10;0.10;;;;;;;8.12;100.00;95956.88;4923985;28;20043;-85
2023/09/23 02:11:22;;;;;;;0.10;0.10;;;;;;;8.08;100.00;95960.00;4937837;28;20492;-83
2023/09/23 02:14:09;;;;;;;0.10;0.10;;;;;;;8.06;100.00;95963.97;4937795;28;20050;-86
2023/09/23 02:16:54;;;;;;;0.10;0.10;;;;;;;8.09;100.00;95971.47;4936723;28;20506;-86
2023/09/23 02:19:40;;;;;;;0.10;0.10;;;;;;;7.98;100.00;95972.38;4952832;28;20074;-84
2023/09/23 02:22:26;;;;;;;0.10;0.10;;;;;;;8.02;100.00;95977.00;4961453;28;20054;-84
2023/09/23 02:25:13;;;;;;;0.10;0.10;;;;;;;8.01;100.00;95985.22;4953476;28;20503;-85
2023/09/23 02:27:59;;;;;;;0.10;0.10;;;;;;;7.97;100.00;95982.25;4939126;28;20051;-85
2023/09/23 02:30:46;;;;;;;0.10;0.10;;;;;;;8.00;100.00;95983.59;4934593;28;20418;-85
2023/09/23 02:33:32;;;;;;;0.10;0.10;;;;;;;7.90;100.00;95989.59;4934490;28;20036;-85
2023/09/23 02:36:18;;;;;;;0.10;0.10;;;;;;;7.87;100.00;95994.59;4934527;28;20089;-85
2023/09/23 02:39:05;;;;;;;0.10;0.10;;;;;;;7.89;100.00;95989.84;4920699;28;20040;-85
2023/09/23 02:41:50;;;;;;;0.10;0.10;;;;;;;7.88;100.00;95997.03;4932886;28;20050;-85
2023/09/23 02:44:36;;;;;;;0.10;0.10;;;;;;;7.89;100.00;96009.28;4933913;28;20112;-85
2023/09/23 02:47:22;;;;;;;0.10;0.10;;;;;;;7.88;100.00;96005.00;4935071;28;20043;-85
2023/09/23 02:50:10;;;;;;;0.10;0.10;;;;;;;7.84;100.00;96001.19;4923927;28;20048;-85
2023/09/23 02:52:59;;;;;;;0.10;0.10;;;;;;;7.83;100.00;96010.25;4934013;28;20047;-84
2023/09/23 02:55:51;;;;;;;0.10;0.10;;;;;;;7.83;100.00;96011.06;4934652;28;20417;-85
2023/09/23 02:58:38;;;;;;;0.08;0.08;;;;;;;7.76;100.00;96004.28;4922227;29;20047;-85
2023/09/23 03:01:25;;;;;;;0.10;0.10;;;;;;;7.70;100.00;96016.69;4932156;28;20052;-85
2023/09/23 03:04:25;;;;;;;0.10;0.10;;;;;;;7.77;100.00;96021.88;4934800;28;20043;-84
2023/09/23 03:07:12;;;;;;;0.10;0.10;;;;;;;7.71;100.00;96036.16;4933537;28;20490;-85
2023/09/23 03:10:01;;;;;;;0.10;0.10;;;;;;;7.69;100.00;96036.38;4932985;28;20050;-84
2023/09/23 03:13:02;;;;;;;0.10;0.10;;;;;;;7.70;100.00;96034.53;4933200;28;20078;-84
2023/09/23 03:15:53;;;;;;;0.10;0.10;;;;;;;7.71;100.00;96036.97;4933996;28;20450;-85
2023/09/23 03:18:54;;;;;;;0.10;0.10;;;;;;;7.71;100.00;96034.31;4933068;28;20047;-85
2023/09/23 03:21:42;;;;;;;0.10;0.10;;;;;;;7.76;100.00;96038.91;4933038;28;20035;-85
2023/09/23 03:24:29;;;;;;;0.00;0.00;;;;;;;7.89;100.00;96041.25;4934911;28;20552;-87
2023/09/23 03:27:18;;;;;;;0.10;0.10;;;;;;;7.98;100.00;96044.31;4932023;28;20129;-85
2023/09/23 03:30:07;;;;;;;0.10;0.10;;;;;;;8.00;100.00;96037.69;4934648;28;20741;-86
2023/09/23 03:32:53;;;;;;;0.10;0.10;;;;;;;7.93;100.00;96053.03;4920412;28;20047;-84
2023/09/23 03:35:39;;;;;;;0.10;0.10;;;;;;;7.86;100.00;96040.91;4933476;28;20039;-84
2023/09/23 03:38:28;;;;;;;0.10;0.10;;;;;;;7.80;100.00;96035.53;4931900;28;20039;-87
2023/09/23 03:41:14;;;;;;;0.10;0.10;;;;;;;7.95;100.00;96056.28;4935375;28;20097;-85
2023/09/23 03:44:02;;;;;;;0.10;0.10;;;;;;;7.98;100.00;96055.00;4934862;28;20439;-86
2023/09/23 03:46:50;;;;;;;0.10;0.10;;;;;;;7.96;100.00;96052.56;4925616;28;20039;-86
2023/09/23 03:49:36;;;;;;;0.10;0.10;;;;;;;7.95;100.00;96064.28;4934784;28;20539;-87
2023/09/23 03:52:23;;;;;;;0.10;0.10;;;;;;;7.90;100.00;96058.84;4934079;28;20438;-85
2023/09/23 03:55:11;;;;;;;0.10;0.10;;;;;;;7.89;100.00;96062.56;4919332;28;20327;-85
2023/09/23 03:57:57;;;;;;;0.10;0.10;;;;;;;7.90;100.00;96074.84;4937075;28;20040;-84
2023/09/23 04:00:44;;;;;;;0.10;0.10;;;;;;;7.84;100.00;96065.13;4937683;28;20668;-87
2023/09/23 04:03:34;;;;;;;0.10;0.10;;;;;;;7.84;100.00;96075.78;4938341;28;20443;-86
2023/09/23 04:06:19;;;;;;;0.10;0.10;;;;;;;7.83;100.00;96077.66;4939920;28;20458;-87
2023/09/23 04:09:09;;;;;;;0.10;0.10;;;;;;;7.79;100.00;96078.38;4923121;28;20043;-84
2023/09/23 04:11:55;;;;;;;0.10;0.10;;;;;;;7.77;100.00;96075.94;4936038;28;20526;-86
2023/09/23 04:14:43;;;;;;;0.10;0.10;;;;;;;7.74;100.00;96086.28;4939404;28;20071;-86
2023/09/23 04:17:29;;;;;;;0.10;0.10;;;;;;;7.74;100.00;96080.94;4939626;28;20159;-86
2023/09/23 04:20:15;;;;;;;0.10;0.10;;;;;;;7.72;100.00;96085.72;4941423;28;20047;-85
2023/09/23 04:23:01;;;;;;;0.10;0.10;;;;;;;7.69;100.00;96078.19;4940896;28;20466;-87
2023/09/23 04:25:50;;;;;;;0.10;0.10;;;;;;;7.69;100.00;96088.84;4939685;28;20043;-86
2023/09/23 04:28:36;;;;;;;0.10;0.10;;;;;;;7.71;100.00;96100.09;4936633;28;20043;-86
2023/09/23 04:31:24;;;;;;;0.00;0.00;;;;;;;7.71;100.00;96094.75;4940704;28;20514;-87
2023/09/23 04:34:10;;;;;;;0.10;0.10;;;;;;;7.72;100.00;96094.50;4938392;28;20054;-86
2023/09/23 04:36:57;;;;;;;0.10;0.10;;;;;;;7.69;100.00;96099.50;4938424;28;20094;-87
2023/09/23 04:39:43;;;;;;;0.10;0.10;;;;;;;7.71;100.00;96106.22;4936773;28;20051;-86
2023/09/23 04:42:28;;;;;;;0.10;0.10;;;;;;;7.69;100.00;96107.47;4937159;28;20591;-86
2023/09/23 04:45:14;;;;;;;0.10;0.10;;;;;;;7.68;100.00;96101.34;4939138;28;20054;-86
2023/09/23 04:48:01;;;;;;;0.10;0.10;;;;;;;7.70;100.00;96111.75;4938146;28;20580;-86
2023/09/23 04:50:46;;;;;;;0.10;0.10;;;;;;;7.69;100.00;96116.28;4937894;28;20047;-85
2023/09/23 04:53:33;;;;;;;0.10;0.10;;;;;;;7.75;100.00;96120.66;4939883;28;20129;-85
2023/09/23 04:56:19;;;;;;;0.10;0.10;;;;;;;7.77;100.00;96118.56;4939677;28;20463;-86
2023/09/23 04:59:04;;;;;;;0.10;0.10;;;;;;;7.83;100.00;96117.59;4923861;28;20046;-85
2023/09/23 05:01:50;;;;;;;0.10;0.10;;;;;;;7.88;100.00;96130.22;4938117;28;20342;-86
2023/09/23 05:04:36;;;;;;;0.10;0.10;;;;;;;8.01;100.00;96134.44;4937778;28;20099;-87
2023/09/23 05:07:26;;;;;;;0.10;0.10;;;;;;;8.05;100.00;96131.06;4936717;28;20047;-87
2023/09/23 05:10:17;;;;;;;0.10;0.10;;;;;;;8.13;100.00;96134.38;4939322;28;20039;-86
2023/09/23 05:13:03;;;;;;;0.10;0.10;;;;;;;8.17;100.00;96143.50;4938027;28;20047;-87
2023/09/23 05:15:49;;;;;;;0.10;0.10;;;;;;;8.15;100.00;96134.94;4939759;28;20043;-88
2023/09/23 05:18:35;;;;;;;0.10;0.10;;;;;;;8.02;100.00;96141.41;4936558;28;20404;-87
2023/09/23 05:21:21;;;;;;;0.10;0.10;;;;;;;8.03;100.00;96154.47;4938743;28;20113;-88
2023/09/23 05:24:09;;;;;;;0.10;0.10;;;;;;;7.98;100.00;96169.56;4939320;28;20383;-86
2023/09/23 05:26:56;;;;;;;0.10;0.10;;;;;;;8.00;100.00;96173.59;4939341;28;20050;-86
2023/09/23 05:29:44;;;;;;;0.10;0.10;;;;;;;8.08;100.00;96167.88;4925256;28;20580;-89
2023/09/23 05:32:29;;;;;;;0.10;0.10;;;;;;;8.15;100.00;96174.91;4937636;28;20047;-87
2023/09/23 05:35:15;;;;;;;0.05;0.05;;;;;;;8.18;100.00;96172.59;4951113;28;20127;-85
2023/09/23 05:38:01;;;;;;;0.10;0.10;;;;;;;8.30;100.00;96184.00;4951171;28;20047;-83
2023/09/23 05:40:47;;;;;;;0.10;0.10;;;;;;;8.38;100.00;96188.16;4941223;28;20086;-85
2023/09/23 05:43:33;;;;;;;0.10;0.10;;;;;;;8.56;100.00;96192.44;4937011;28;20043;-84
2023/09/23 05:46:19;;;;;;;0.10;0.10;;;;;;;8.70;100.00;96191.06;4938591;28;20162;-86
2023/09/23 05:49:08;;;;;;;0.10;0.10;;;;;;;8.84;100.00;96191.56;4936984;28;20054;-86
2023/09/23 05:51:54;;;;;;;0.10;0.10;;;;;;;8.95;100.00;96188.00;4936158;28;20410;-84
2023/09/23 05:54:40;;;;;;;0.10;0.10;;;;;;;9.04;100.00;96202.56;4938800;28;20078;-85
2023/09/23 05:57:29;;;;;;;0.10;0.10;;;;;;;9.11;100.00;96203.19;4939295;28;20046;-85
2023/09/23 06:00:15;;;;;;;0.10;0.10;;;;;;;9.22;100.00;96214.81;4934861;28;20605;-86
2023/09/23 06:03:01;;;;;;;0.10;0.10;;;;;;;9.14;100.00;96226.72;4937856;28;20164;-89
2023/09/23 06:05:47;;;;;;;0.10;0.10;;;;;;;9.01;100.00;96229.72;4919726;29;20052;-86
2023/09/23 06:08:32;;;;;;;0.10;0.10;;;;;;;8.88;100.00;96230.06;4919310;29;20046;-88
2023/09/23 06:11:18;;;;;;;0.10;0.10;;;;;;;8.98;100.00;96238.22;4918248;29;20075;-86
2023/09/23 06:14:04;;;;;;;0.10;0.10;;;;;;;8.96;100.00;96243.00;4917856;29;20048;-85
2023/09/23 06:16:50;;;;;;;0.10;0.10;;;;;;;8.83;100.00;96249.44;4919370;29;20027;-88
2023/09/23 06:19:36;;;;;;;0.10;0.10;;;;;;;8.87;100.00;96255.94;4918045;29;20039;-86
2023/09/23 06:22:22;;;;;;;0.10;0.10;;;;;;;8.89;100.00;96261.84;4921199;29;20452;-88
2023/09/23 06:25:08;;;;;;;0.10;0.10;;;;;;;8.90;100.00;96260.78;4920860;28;20612;-87
2023/09/23 06:27:54;;;;;;;0.10;0.10;;;;;;;8.95;100.00;96257.41;4916205;29;20436;-87
2023/09/23 06:30:41;;;;;;;0.10;0.10;;;;;;;8.99;100.00;96249.69;4919672;28;20130;-86
2023/09/23 06:33:27;;;;;;;0.10;0.10;;;;;;;8.91;100.00;96254.38;4916224;29;20446;-86
2023/09/23 06:36:13;;;;;;;0.10;0.10;;;;;;;8.89;100.00;96259.16;4918664;29;20052;-88
2023/09/23 06:38:59;;;;;;;0.10;0.10;;;;;;;8.89;100.00;96266.38;4915481;29;20039;-88
2023/09/23 06:41:45;;;;;;;0.10;0.10;;;;;;;8.99;100.00;96266.53;4916881;29;20048;-89
2023/09/23 06:44:31;;;;;;;0.10;0.10;;;;;;;9.07;100.00;96268.78;4918435;29;20051;-86
2023/09/23 06:47:17;;;;;;;0.10;0.10;;;;;;;9.09;100.00;96273.88;4919246;28;20514;-89
2023/09/23 06:50:04;;;;;;;0.10;0.10;;;;;;;9.09;100.00;96280.03;4919120;29;20055;-86
2023/09/23 06:52:50;;;;;;;0.10;0.10;;;;;;;9.16;100.00;96275.31;4915092;29;20054;-86
2023/09/23 06:55:36;;;;;;;0.10;0.10;;;;;;;9.24;100.00;96292.00;4917075;29;20038;-84
2023/09/23 06:58:21;;;;;;;0.10;0.10;;;;;;;9.33;100.00;96303.88;4918447;29;20052;-84
2023/09/23 07:01:07;;;;;;;0.10;0.10;;;;;;;9.40;100.00;96293.84;4916471;29;20682;-84
2023/09/23 07:03:53;;;;;;;0.10;0.10;;;;;;;9.45;100.00;96293.91;4920460;28;20051;-84
2023/09/23 07:06:39;;;;;;;0.10;0.10;;;;;;;9.44;100.00;96293.13;4935512;28;20050;-84
2023/09/23 07:09:25;;;;;;;0.10;0.10;;;;;;;9.45;100.00;96312.63;4937957;28;20064;-85
2023/09/23 07:12:12;;;;;;;0.10;0.10;;;;;;;9.51;100.00;96314.31;4934763;28;20157;-85
2023/09/23 07:14:58;;;;;;;0.10;0.10;;;;;;;9.52;100.00;96310.59;4937504;28;20066;-86
2023/09/23 07:17:44;;;;;;;0.10;0.10;;;;;;;9.58;100.00;96309.63;4935241;28;20098;-84
2023/09/23 07:20:30;;;;;;;0.10;0.10;;;;;;;9.62;100.00;96309.91;4936100;28;20054;-85
2023/09/23 07:23:16;;;;;;;0.10;0.10;;;;;;;9.69;100.00;96313.22;4942973;28;20049;-87
2023/09/23 07:26:05;;;;;;;0.10;0.10;;;;;;;9.75;100.00;96313.06;4941268;28;20039;-84
2023/09/23 07:28:51;;;;;;;0.10;0.10;;;;;;;9.80;100.00;96312.28;4940001;28;20530;-84
2023/09/23 07:31:37;;;;;;;0.10;0.10;;;;;;;9.86;100.00;96321.19;4940054;28;20735;-83
2023/09/23 07:34:23;;;;;;;0.10;0.10;;;;;;;9.71;100.00;96330.63;4941022;28;20046;-84
2023/09/23 07:37:10;;;;;;;0.10;0.10;;;;;;;9.80;100.00;96338.22;4942172;28;20522;-86
2023/09/23 07:39:56;;;;;;;0.10;0.10;;;;;;;9.91;100.00;96348.81;4938023;28;20043;-84
2023/09/23 07:42:42;;;;;;;0.10;0.10;;;;;;;9.97;100.00;96350.50;4936809;28;20284;-84
2023/09/23 07:45:27;;;;;;;0.10;0.10;;;;;;;9.86;100.00;96361.28;4936745;28;20489;-84
2023/09/23 07:48:13;;;;;;;0.10;0.10;;;;;;;10.00;100.00;96365.22;4935783;28;20043;-84
2023/09/23 07:50:59;;;;;;;0.10;0.10;;;;;;;10.36;100.00;96373.75;4936580;28;20481;-84
2023/09/23 07:53:45;;;;;;;0.10;0.10;;;;;;;10.77;100.00;96375.03;4920674;28;20051;-85
2023/09/23 07:56:31;;;;;;;0.10;0.10;;;;;;;10.66;100.00;96376.81;4940223;28;20314;-84
2023/09/23 07:59:16;;;;;;;0.10;0.10;;;;;;;10.64;100.00;96376.22;4939973;28;20047;-85
2023/09/23 08:02:02;;;;;;;0.10;0.10;;;;;;;10.90;100.00;96382.69;4939909;28;20510;-84
2023/09/23 08:04:48;;;;;;;0.10;0.10;;;;;;;10.98;100.00;96384.91;4938447;28;20502;-85
2023/09/23 08:07:34;;;;;;;0.00;0.00;;;;;;;10.93;100.00;96394.75;4940305;28;20039;-85
2023/09/23 08:10:20;;;;;;;0.10;0.10;;;;;;;11.30;100.00;96400.19;4941925;28;20090;-84
2023/09/23 08:13:05;;;;;;;0.10;0.10;;;;;;;11.53;100.00;96393.69;4939203;28;20043;-85
2023/09/23 08:15:59;;;;;;;0.10;0.10;;;;;;;11.51;100.00;96395.81;4937817;28;20245;-84
2023/09/23 08:18:46;;;;;;;0.10;0.10;;;;;;;11.61;100.00;96401.28;4939884;28;20043;-86
2023/09/23 08:21:32;;;;;;;0.10;0.10;;;;;;;11.18;100.00;96413.72;4937962;28;20040;-85
2023/09/23 08:24:18;;;;;;;0.10;0.10;;;;;;;11.48;100.00;96410.53;4937655;28;20067;-84
2023/09/23 08:27:04;;;;;;;0.10;0.10;;;;;;;11.83;100.00;96403.84;4940943;28;20078;-85
2023/09/23 08:29:50;;;;;;;0.10;0.10;;;;;;;12.11;100.00;96416.94;4940484;28;20043;-84
2023/09/23 08:32:37;;;;;;;0.10;0.10;;;;;;;12.10;100.00;96419.88;4938644;28;20043;-84
2023/09/23 08:35:23;;;;;;;0.10;0.10;;;;;;;12.41;100.00;96418.97;4938780;28;20043;-86
2023/09/23 08:38:09;;;;;;;0.10;0.10;;;;;;;12.60;100.00;96427.38;4938747;28;20039;-84
2023/09/23 08:40:55;;;;;;;0.10;0.10;;;;;;;12.60;100.00;96424.69;4940822;28;20125;-85
2023/09/23 08:43:42;;;;;;;0.10;0.10;;;;;;;12.67;100.00;96419.88;4939736;28;20129;-84
2023/09/23 08:46:30;;;;;;;0.10;0.10;;;;;;;12.48;100.00;96422.22;4939407;28;20054;-85
2023/09/23 08:49:17;;;;;;;0.10;0.10;;;;;;;12.65;100.00;96427.41;4938841;28;20041;-85
2023/09/23 08:52:04;;;;;;;0.10;0.10;;;;;;;12.95;100.00;96426.72;4939647;28;20051;-84
2023/09/23 08:54:50;;;;;;;0.10;0.10;;;;;;;12.74;100.00;96430.38;4938324;28;20039;-85
2023/09/23 08:57:36;;;;;;;0.10;0.10;;;;;;;12.54;100.00;96440.00;4925216;28;20055;-85
2023/09/23 09:00:23;;;;;;;0.00;0.00;;;;;;;12.43;100.00;96435.63;4940285;28;20980;-84
2023/09/23 09:03:09;;;;;;;0.10;0.10;;;;;;;12.92;100.00;96437.16;4938132;28;20051;-84
2023/09/23 09:05:55;;;;;;;0.10;0.10;;;;;;;13.16;100.00;96445.59;4939461;28;20234;-84
2023/09/23 09:08:42;;;;;;;0.10;0.10;;;;;;;13.28;100.00;96446.16;4937798;28;20585;-84
2023/09/23 09:11:28;;;;;;;0.10;0.10;;;;;;;13.56;100.00;96443.00;4940891;28;20066;-84
2023/09/23 09:14:15;;;;;;;0.10;0.10;;;;;;;13.18;100.00;96448.81;4938499;28;20089;-84
2023/09/23 09:17:01;;;;;;;0.10;0.10;;;;;;;13.32;100.00;96453.44;4938487;28;20114;-85
2023/09/23 09:19:48;;;;;;;0.10;0.10;;;;;;;13.51;100.00;96456.44;4941236;28;20516;-84
2023/09/23 09:22:34;;;;;;;0.10;0.10;;;;;;;13.58;100.00;96450.78;4939089;28;20054;-85
2023/09/23 09:25:20;;;;;;;0.10;0.10;;;;;;;14.02;100.00;96455.66;4940236;28;20483;-86
2023/09/23 09:28:06;;;;;;;0.10;0.10;;;;;;;14.51;100.00;96447.78;4940617;28;20174;-84
2023/09/23 09:30:56;;;;;;;0.10;0.10;;;;;;;14.59;100.00;96449.91;4936441;28;20050;-84
2023/09/23 09:33:47;;;;;;;0.10;0.10;;;;;;;14.54;100.00;96441.84;4938923;28;20058;-85
2023/09/23 09:36:37;;;;;;;0.10;0.10;;;;;;;14.66;100.00;96450.44;4938546;28;20045;-84
2023/09/23 09:39:28;;;;;;;0.10;0.10;;;;;;;15.09;100.00;96456.19;4940326;28;20592;-83
2023/09/23 09:42:19;;;;;;;0.10;0.10;;;;;;;14.73;100.00;96460.94;4937192;28;20043;-84
2023/09/23 09:45:08;;;;;;;;;;;;;;;14.90;100.00;96465.97;4940665;28;20039;-85
2023/09/23 09:48:00;;;;;;;0.10;0.10;;;;;;;14.84;100.00;96467.06;4937430;28;20682;-85
2023/09/23 09:50:47;;;;;;;0.10;0.10;;;;;;;14.54;100.00;96465.28;4938696;28;20167;-85
2023/09/23 09:53:36;;;;;;;0.10;0.10;;;;;;;14.60;100.00;96477.66;4938676;28;20058;-84
2023/09/23 09:56:24;;;;;;;0.10;0.10;;;;;;;14.67;100.00;96478.97;4938804;28;20046;-84
2023/09/23 09:59:20;;;;;;;0.10;0.10;;;;;;;14.55;100.00;96475.78;4938282;28;20040;-84
2023/09/23 10:02:06;;;;;;;0.10;0.10;;;;;;;15.45;100.00;96466.78;4939846;28;20051;-85
2023/09/23 10:04:53;;;;;;;0.10;0.10;;;;;;;16.45;100.00;96466.28;4939236;28;20224;-85
2023/09/23 10:07:55;;;;;;;0.03;0.03;;;;;;;16.05;100.00;96464.78;4937770;28;20043;-85
2023/09/23 10:10:51;;;;;;;0.10;0.10;;;;;;;15.95;100.00;96471.03;4939245;28;20035;-84
2023/09/23 10:13:37;;;;;;;0.10;0.10;;;;;;;16.06;100.00;96467.19;4934441;28;20070;-84
2023/09/23 10:16:27;;;;;;;0.10;0.10;;;;;;;16.58;100.00;96462.91;4937752;28;20039;-85
2023/09/23 10:19:14;;;;;;;0.10;0.10;;;;;;;17.16;100.00;96470.91;4938275;28;20043;-85
2023/09/23 10:22:19;;;;;;;0.10;0.10;;;;;;;17.71;100.00;96467.75;4936808;28;20109;-84
2023/09/23 10:25:08;;;;;;;0.10;0.10;;;;;;;21.46;86.19;96459.72;4936990;28;20036;-85
2023/09/23 10:27:57;;;;;;;0.10;0.10;;;;;;;18.86;97.95;96466.06;4936960;28;20494;-85
2023/09/23 10:30:44;;;;;;;0.20;0.20;;;;;;;21.57;78.75;96463.78;4935427;28;20519;-84
2023/09/23 10:33:32;;;;;;;0.20;0.20;;;;;;;24.39;57.26;96458.94;4937250;28;20043;-84
2023/09/23 10:36:19;;;;;;;0.20;0.20;;;;;;;24.58;53.77;96469.34;4931676;28;20125;-84
2023/09/23 10:39:15;;;;;;;0.10;0.10;;;;;;;21.64;67.86;96495.97;4935080;28;20051;-84
2023/09/23 10:42:01;;;;;;;0.10;0.10;;;;;;;16.76;100.00;96496.53;4936037;28;20049;-83
2023/09/23 10:44:50;;;;;;;0.10;0.10;;;;;;;17.98;100.00;96494.16;4935448;28;20079;-84
2023/09/23 10:47:37;;;;;;;0.20;0.20;;;;;;;17.12;100.00;96496.09;4934529;28;20150;-84
2023/09/23 10:50:23;;;;;;;0.10;0.10;;;;;;;16.34;100.00;96489.06;4934563;28;20402;-82
2023/09/23 10:53:09;;;;;;;0.20;0.20;;;;;;;22.50;77.98;96468.69;4934467;28;20073;-84
2023/09/23 10:55:56;;;;;;;0.10;0.10;;;;;;;20.51;90.26;96473.78;4934954;28;20073;-83
2023/09/23 10:58:42;;;;;;;0.20;0.20;;;;;;;18.84;99.21;96486.47;4934615;28;20078;-83
2023/09/23 11:01:29;;;;;;;0.10;0.10;;;;;;;22.70;70.42;96478.09;4937896;28;20421;-84
2023/09/23 11:04:16;;;;;;;0.10;0.10;;;;;;;23.71;61.23;96481.00;4937566;28;20481;-84
2023/09/23 11:07:05;;;;;;;0.10;0.10;;;;;;;23.16;63.67;96479.22;4936743;28;20321;-83
2023/09/23 11:09:53;;;;;;;0.10;0.10;;;;;;;21.74;81.17;96473.88;4935827;28;20074;-84
2023/09/23 11:12:51;;;;;;;0.20;0.20;;;;;;;20.21;88.88;96483.47;4933865;28;20125;-84
2023/09/23 11:15:43;;;;;;;0.10;0.10;;;;;;;19.82;90.41;96500.44;4937425;28;20049;-86
2023/09/23 11:18:30;;;;;;;0.20;0.20;;;;;;;19.28;97.85;96501.31;4936768;28;20158;-84
2023/09/23 11:21:16;;;;;;;0.20;0.20;;;;;;;19.24;91.80;96516.59;4939428;28;20664;-85
2023/09/23 11:24:07;;;;;;;0.05;0.05;;;;;;;18.77;96.38;96499.59;4937002;28;20039;-85
2023/09/23 11:26:55;;;;;;;0.10;0.10;;;;;;;18.35;100.00;96501.38;4935938;28;20043;-84
2023/09/23 11:29:41;;;;;;;0.10;0.10;;;;;;;18.65;99.16;96509.00;4937227;28;20377;-86
2023/09/23 11:32:27;;;;;;;0.10;0.10;;;;;;;18.89;97.04;96505.31;4936472;28;20057;-85
2023/09/23 11:35:14;;;;;;;0.10;0.10;;;;;;;21.11;86.56;96505.88;4935929;28;20462;-84
2023/09/23 11:38:01;;;;;;;0.10;0.10;;;;;;;18.99;94.29;96509.75;4937502;28;20070;-85
2023/09/23 11:40:47;;;;;;;0.10;0.10;;;;;;;17.75;100.00;96522.91;4937306;28;20130;-86
2023/09/23 11:43:33;;;;;;;0.10;0.10;;;;;;;19.69;94.30;96521.09;4937871;28;20043;-85
2023/09/23 11:46:20;;;;;;;0.10;0.10;;;;;;;18.99;93.49;96528.72;4937288;28;20081;-84
2023/09/23 11:49:06;;;;;;;0.10;0.10;;;;;;;17.52;100.00;96521.84;4938032;28;20043;-86
2023/09/23 11:51:52;;;;;;;0.10;0.10;;;;;;;17.35;100.00;96519.59;4938263;28;20047;-85
2023/09/23 11:54:40;;;;;;;0.00;0.00;;;;;;;17.83;100.00;96519.53;4938458;28;20447;-86
2023/09/23 11:57:26;;;;;;;0.10;0.10;;;;;;;17.55;100.00;96523.94;4940299;28;20506;-86
2023/09/23 12:00:13;;;;;;;0.10;0.10;;;;;;;17.35;100.00;96532.31;4939196;28;20043;-85
2023/09/23 12:02:59;;;;;;;0.05;0.05;;;;;;;17.34;100.00;96531.53;4942934;28;20134;-84
2023/09/23 12:05:45;;;;;;;0.10;0.10;;;;;;;16.94;100.00;96528.19;4961654;28;20325;-83
2023/09/23 12:08:30;;;;;;;0.10;0.10;;;;;;;16.86;100.00;96523.44;4961445;28;20067;-84
2023/09/23 12:11:17;;;;;;;0.10;0.10;;;;;;;16.57;100.00;96536.13;4936246;28;20043;-84
2023/09/23 12:14:03;;;;;;;0.10;0.10;;;;;;;16.42;100.00;96535.19;4937171;28;20043;-87
2023/09/23 12:16:48;;;;;;;0.10;0.10;;;;;;;16.67;100.00;96533.34;4937925;28;20040;-85
2023/09/23 12:19:34;;;;;;;0.10;0.10;;;;;;;16.92;100.00;96533.09;4935366;28;20047;-89
2023/09/23 12:22:22;;;;;;;0.10;0.10;;;;;;;16.91;100.00;96542.31;4921186;28;20050;-87
2023/09/23 12:25:08;;;;;;;0.10;0.10;;;;;;;16.85;100.00;96545.34;4937039;28;20477;-88
2023/09/23 12:27:54;;;;;;;0.13;0.13;;;;;;;17.08;100.00;96541.03;4937606;28;20043;-86
2023/09/23 12:30:40;;;;;;;0.10;0.10;;;;;;;17.31;100.00;96545.63;4937284;28;20047;-86
2023/09/23 12:33:27;;;;;;;0.10;0.10;;;;;;;18.18;100.00;96549.88;4938703;28;20043;-88
2023/09/23 12:36:12;;;;;;;0.10;0.10;;;;;;;18.03;100.00;96545.50;4938426;28;20293;-86
2023/09/23 12:38:58;;;;;;;0.10;0.10;;;;;;;17.78;100.00;96565.63;4936133;28;20429;-88
2023/09/23 12:41:44;;;;;;;0.10;0.10;;;;;;;17.46;100.00;96561.66;4936416;28;20117;-86
2023/09/23 12:44:30;;;;;;;0.20;0.20;;;;;;;17.48;100.00;96561.38;4939930;28;20043;-86
2023/09/23 12:47:16;;;;;;;0.10;0.10;;;;;;;16.99;100.00;96576.81;4938817;28;20043;-88
2023/09/23 12:50:02;;;;;;;0.00;0.00;;;;;;;16.32;100.00;96574.94;4941682;28;20044;-87
2023/09/23 12:52:50;;;;;;;0.00;0.00;;;;;;;16.15;100.00;96578.84;4925105;28;20458;-85
2023/09/23 12:55:36;;;;;;;0.10;0.10;;;;;;;16.14;100.00;96577.25;4941248;28;20047;-88
2023/09/23 12:58:22;;;;;;;0.10;0.10;;;;;;;16.05;100.00;96586.22;4939158;28;20049;-86
2023/09/23 13:01:08;;;;;;;0.10;0.10;;;;;;;16.20;100.00;96588.81;4939523;28;20054;-87
2023/09/23 13:03:57;;;;;;;0.10;0.10;;;;;;;18.22;100.00;96589.63;4940620;28;20426;-87
2023/09/23 13:06:43;;;;;;;0.10;0.10;;;;;;;24.37;66.26;96574.13;4936100;28;20043;-88